メインページ
METAR-TAF:

METAR-TAF

空港 :

ニアメ, ニジェール

ディオリ・アマニ国際空港

緯度: 13-29N, 経度: 002-10E, 海抜: 223m

現時点の気象観測

当レポートは59分前の11:00(UTC)に作成
北/北西の風 9kt、西からの間で変化する
気温 40°C
湿度 7%
気圧 1012 hPa
視程: 6000m

METAR: DRRN 241100Z 34009KT 280V010 6000 NSC 40/M03 Q1012 TEMPO 4000 DU

時間: 12:59 (11:59 UTC)

予報

当レポートは59分前の11:00(UTC)に作成
予報は24日の 12時(UTC)から 25日の 18時(UTC)まで有効
北/北東の風 10kt
視程: 8000m
確率 40%
24日の 17時(UTC)から 24日の 20時(UTC)まで
視程: 4000m
広範な塵
確率 40% :
25日の 07時(UTC)から 25日の 12時(UTC)まで一時的に
の風 20kt
視程: 2000m
風塵

TAF: DRRN 241100Z 2412/2518 02010KT 8000 NSC PROB40 2417/2420 4000 DU PROB40 TEMPO 2507/2512 36020KT 2000 BLDU

4,000以上の空港の気象観測と天気予報(METAR報とTAF報)

利用可能な観測所は地図上に黄色い丸と赤い丸で示す。

丸の上にカーソルを重ねると観測所名を参照できる。

次にクリックすると気象観測と天気予報を参照できる。

マップの切り替え:黒色「×」印の緑ボタンをクリックして拡大、「-」印の緑ボタンをクリックして縮小、緑色の三角印をクリックして隣りの地図に切り替え


METAR-TAF: